Almaty, Kazakhstan
Current Conditions -  °F | °C
As of 6:00 AM on Sunday 26 Oct 2014 (Local Time) from UAAA Reporting Station
Haze Haze  
Wind Chill:   Ceiling: Unl
Heat Index:   Visibility: 3mi
Dew Point:   Wind: 4mph
Humidity: 87%   Direction: 140°SE
Pressure: 29.91"   Gusts: NA
Location:  43.32°N, 76.92°E
Report Text: UAAA 260000Z 14002MPS 5000 BR FEW100 05/03 Q1013 R88/CLRD65NOSIG
Loading
Personal Weather Stations






























Interactive Weather Map
Tropical Storm Tracking
New forecast layout! Learn more

10-Day Weather Forecast

Advertisements
Track Severe Weather on mobile